createdAt,value
2023-03-03T00:01:37.525Z,16.50
2023-03-03T00:04:05.997Z,16.43
2023-03-03T00:06:34.536Z,17.27
2023-03-03T00:09:02.936Z,24.67
2023-03-03T00:11:31.352Z,19.60
2023-03-03T00:13:59.912Z,18.27
2023-03-03T00:16:33.761Z,19.20
2023-03-03T00:19:02.429Z,18.80
2023-03-03T00:21:33.413Z,17.70
2023-03-03T00:24:24.763Z,18.03
2023-03-03T00:26:56.078Z,20.27
2023-03-03T00:29:35.868Z,19.20
2023-03-03T00:32:27.085Z,18.27
2023-03-03T00:34:58.336Z,19.80
2023-03-03T00:37:35.763Z,21.60
2023-03-03T00:40:25.072Z,20.00
2023-03-03T00:42:55.815Z,22.90
2023-03-03T00:45:33.112Z,22.17
2023-03-03T00:48:27.665Z,24.43
2023-03-03T00:51:01.583Z,21.70
2023-03-03T00:53:31.896Z,21.47
2023-03-03T00:56:00.266Z,24.63
2023-03-03T00:58:29.703Z,24.80
2023-03-03T01:00:58.895Z,22.33
2023-03-03T01:03:38.114Z,23.90
2023-03-03T01:06:07.064Z,23.90
2023-03-03T01:08:35.515Z,24.57
2023-03-03T01:11:10.080Z,25.30
2023-03-03T01:13:41.922Z,26.23
2023-03-03T01:16:11.941Z,28.40
2023-03-03T01:18:42.696Z,25.87
2023-03-03T01:21:11.760Z,25.60
2023-03-03T01:23:41.467Z,31.60
2023-03-03T01:26:10.018Z,29.00
2023-03-03T01:28:38.380Z,30.40
2023-03-03T01:31:07.737Z,27.70
2023-03-03T01:33:37.759Z,32.17
2023-03-03T01:36:09.372Z,30.87
2023-03-03T01:38:38.207Z,27.60
2023-03-03T01:41:07.327Z,24.70
2023-03-03T01:43:35.785Z,24.23
2023-03-03T01:46:45.840Z,31.10
2023-03-03T01:49:17.624Z,26.90
2023-03-03T01:51:52.362Z,27.53
2023-03-03T01:54:27.784Z,26.67
2023-03-03T01:57:01.157Z,30.97
2023-03-03T01:59:33.173Z,26.40
2023-03-03T02:02:01.628Z,37.57
2023-03-03T02:04:30.579Z,29.27
2023-03-03T02:07:06.997Z,28.63
2023-03-03T02:09:44.916Z,33.37
2023-03-03T02:12:17.684Z,30.90
2023-03-03T02:14:46.901Z,35.60
2023-03-03T02:17:15.450Z,30.87
2023-03-03T02:19:54.164Z,28.77
2023-03-03T02:22:36.237Z,33.83
2023-03-03T02:25:09.805Z,30.67
2023-03-03T02:27:40.053Z,32.37
2023-03-03T02:30:15.745Z,33.90
2023-03-03T02:32:44.374Z,30.40
2023-03-03T02:35:39.215Z,33.60
2023-03-03T02:38:20.908Z,30.40
2023-03-03T02:41:01.913Z,31.50
2023-03-03T02:43:38.720Z,35.57
2023-03-03T02:46:07.199Z,32.30
2023-03-03T02:48:35.787Z,27.63
2023-03-03T02:51:04.226Z,33.33
2023-03-03T02:53:32.632Z,33.43
2023-03-03T02:56:01.040Z,31.63
2023-03-03T02:58:29.461Z,33.57
2023-03-03T03:00:59.282Z,34.80
2023-03-03T03:03:28.511Z,31.67
2023-03-03T03:05:56.892Z,35.73
2023-03-03T03:08:27.000Z,35.83
2023-03-03T03:10:56.954Z,36.57
2023-03-03T03:13:27.004Z,39.70
2023-03-03T03:15:55.605Z,34.43
2023-03-03T03:18:25.384Z,36.40
2023-03-03T03:20:56.439Z,34.03
2023-03-03T03:23:24.880Z,38.00
2023-03-03T03:25:53.277Z,38.37
2023-03-03T03:28:28.536Z,39.27
2023-03-03T03:30:57.313Z,35.87
2023-03-03T03:33:28.269Z,34.47
2023-03-03T03:35:58.308Z,38.00
2023-03-03T03:38:29.747Z,39.60
2023-03-03T03:40:58.426Z,40.20
2023-03-03T03:43:28.675Z,38.43
2023-03-03T03:45:57.391Z,44.70
2023-03-03T03:48:28.515Z,44.37
2023-03-03T03:50:57.599Z,43.20
2023-03-03T03:53:28.341Z,41.70
2023-03-03T03:55:56.845Z,38.47
2023-03-03T03:58:25.429Z,41.37
2023-03-03T04:01:04.710Z,43.77
2023-03-03T04:03:35.838Z,40.30
2023-03-03T04:06:07.601Z,43.40
2023-03-03T04:08:36.345Z,45.13
2023-03-03T04:11:05.544Z,41.90
2023-03-03T04:13:35.344Z,43.83
2023-03-03T04:16:07.494Z,38.10
2023-03-03T04:18:38.271Z,40.70
2023-03-03T04:21:07.198Z,43.90
2023-03-03T04:23:35.711Z,43.50
2023-03-03T04:26:05.010Z,42.70
2023-03-03T04:28:33.764Z,40.87
2023-03-03T04:31:03.235Z,41.57
2023-03-03T04:33:33.088Z,45.27
2023-03-03T04:36:04.671Z,49.30
2023-03-03T04:38:33.093Z,45.57
2023-03-03T04:41:01.742Z,42.77
2023-03-03T04:43:34.871Z,49.63
2023-03-03T04:46:03.930Z,49.40
2023-03-03T04:48:32.996Z,42.97
2023-03-03T04:51:01.399Z,42.90
2023-03-03T04:53:31.459Z,45.90
2023-03-03T04:56:00.045Z,50.80
2023-03-03T04:58:28.465Z,45.50
2023-03-03T05:00:58.760Z,50.90
2023-03-03T05:03:29.750Z,45.70
2023-03-03T05:05:58.158Z,50.07
2023-03-03T05:08:26.617Z,45.93
2023-03-03T05:10:56.726Z,50.10
2023-03-03T05:13:25.108Z,53.23
2023-03-03T05:15:55.490Z,50.80
2023-03-03T05:18:25.273Z,55.90
2023-03-03T05:20:55.415Z,52.93
2023-03-03T05:23:24.540Z,48.10
2023-03-03T05:25:52.965Z,45.50
2023-03-03T05:28:22.824Z,58.80
2023-03-03T05:30:51.290Z,51.50
2023-03-03T05:33:19.892Z,59.70
2023-03-03T05:35:48.636Z,51.27
2023-03-03T05:38:17.256Z,49.63
2023-03-03T05:40:45.870Z,59.00
2023-03-03T05:43:14.448Z,56.93
2023-03-03T05:45:44.353Z,55.23
2023-03-03T05:48:12.788Z,59.63
2023-03-03T05:50:41.171Z,60.23
2023-03-03T05:53:09.649Z,58.80
2023-03-03T05:55:38.122Z,55.67
2023-03-03T05:58:06.550Z,55.33
2023-03-03T06:00:34.994Z,53.80
2023-03-03T06:03:05.008Z,54.67
2023-03-03T06:05:33.496Z,62.13
2023-03-03T06:08:01.968Z,60.97
2023-03-03T06:10:30.338Z,54.60
2023-03-03T06:13:01.421Z,60.40
2023-03-03T06:15:30.032Z,55.63
2023-03-03T06:17:58.724Z,67.67
2023-03-03T06:20:28.678Z,59.33
2023-03-03T06:22:57.160Z,59.10
2023-03-03T06:25:25.740Z,54.63
2023-03-03T06:27:54.258Z,55.13
2023-03-03T06:30:22.923Z,56.60
2023-03-03T06:32:51.330Z,59.10
2023-03-03T06:35:19.883Z,56.33
2023-03-03T06:37:50.930Z,56.43
2023-03-03T06:40:19.731Z,65.23
2023-03-03T06:42:48.314Z,55.17
2023-03-03T06:45:16.904Z,55.13
2023-03-03T06:47:45.423Z,57.60
2023-03-03T06:50:14.671Z,50.20
2023-03-03T06:52:43.109Z,52.37
2023-03-03T06:55:24.167Z,54.87
2023-03-03T06:57:55.870Z,59.60
2023-03-03T07:00:30.853Z,53.13
2023-03-03T07:03:03.310Z,53.43
2023-03-03T07:05:33.181Z,50.17
2023-03-03T07:08:01.725Z,51.83
2023-03-03T07:10:32.722Z,55.37
2023-03-03T07:13:18.956Z,53.73
2023-03-03T07:15:49.207Z,50.77
2023-03-03T07:18:39.313Z,50.37
2023-03-03T07:21:21.182Z,52.70
2023-03-03T07:23:52.784Z,53.70
2023-03-03T07:26:30.740Z,51.00
2023-03-03T07:29:02.563Z,50.70
2023-03-03T07:31:38.573Z,49.50
2023-03-03T07:34:22.040Z,55.60
2023-03-03T07:36:51.962Z,50.20
2023-03-03T07:39:35.153Z,55.33
2023-03-03T07:42:29.518Z,50.70
2023-03-03T07:45:28.144Z,49.47
2023-03-03T07:48:10.926Z,49.27
2023-03-03T07:50:39.448Z,48.13
2023-03-03T07:53:23.389Z,42.73
2023-03-03T07:55:51.788Z,47.20
2023-03-03T07:58:30.541Z,50.13
2023-03-03T08:01:34.713Z,45.03
2023-03-03T08:04:04.510Z,47.93
2023-03-03T08:06:43.698Z,44.07
2023-03-03T08:09:48.190Z,42.30
2023-03-03T08:12:41.927Z,45.43
2023-03-03T08:15:23.758Z,43.27
2023-03-03T08:17:55.037Z,47.47
2023-03-03T08:20:47.681Z,49.90
2023-03-03T08:23:18.130Z,45.03
2023-03-03T08:25:48.425Z,48.97
2023-03-03T08:28:17.497Z,41.20
2023-03-03T08:30:48.026Z,47.00
2023-03-03T08:33:16.959Z,45.83
2023-03-03T08:35:45.612Z,42.33
2023-03-03T08:38:17.087Z,43.83
2023-03-03T08:40:45.901Z,45.67
2023-03-03T08:43:17.365Z,45.13
2023-03-03T08:45:48.951Z,43.73
2023-03-03T08:48:17.972Z,50.20
2023-03-03T08:50:47.362Z,41.13
2023-03-03T08:53:16.973Z,42.33
2023-03-03T08:55:45.798Z,40.37
2023-03-03T08:58:14.666Z,42.97
2023-03-03T09:00:43.764Z,39.23
2023-03-03T09:03:13.758Z,38.33
2023-03-03T09:05:42.836Z,37.67
2023-03-03T09:08:11.584Z,35.67
2023-03-03T09:10:40.387Z,39.97
2023-03-03T09:13:15.720Z,36.20
2023-03-03T09:15:44.252Z,34.63
2023-03-03T09:18:18.065Z,36.57
2023-03-03T09:20:48.192Z,36.83
2023-03-03T09:23:37.637Z,38.43
2023-03-03T09:26:30.731Z,39.23
2023-03-03T09:29:19.405Z,35.30
2023-03-03T09:31:51.709Z,37.10
2023-03-03T09:34:27.915Z,37.50
2023-03-03T09:37:00.153Z,30.83
2023-03-03T09:39:32.031Z,35.10
2023-03-03T09:42:52.115Z,31.47
2023-03-03T09:45:36.839Z,34.07
2023-03-03T09:48:41.394Z,32.93
2023-03-03T09:51:32.750Z,41.63
2023-03-03T09:54:31.047Z,28.87
2023-03-03T09:57:11.645Z,31.30
2023-03-03T09:59:55.654Z,32.57
2023-03-03T10:02:40.001Z,28.43
2023-03-03T10:05:21.939Z,28.80
2023-03-03T10:08:04.957Z,25.50
2023-03-03T10:10:56.760Z,26.13
2023-03-03T10:13:43.513Z,23.20
2023-03-03T10:16:32.521Z,24.33
2023-03-03T10:19:05.853Z,21.23
2023-03-03T10:21:41.166Z,23.43
2023-03-03T10:24:28.941Z,24.40
2023-03-03T10:27:26.083Z,21.87
2023-03-03T10:30:05.684Z,25.50
2023-03-03T10:32:48.710Z,24.80
2023-03-03T10:36:07.304Z,22.77
2023-03-03T10:38:56.499Z,24.70
2023-03-03T10:41:45.335Z,24.70
2023-03-03T10:44:37.465Z,22.83
2023-03-03T10:47:35.771Z,20.13
2023-03-03T10:50:17.616Z,21.33
2023-03-03T10:53:04.533Z,22.77
2023-03-03T10:56:10.848Z,21.67
2023-03-03T10:59:07.056Z,21.33
2023-03-03T11:01:50.871Z,20.13
2023-03-03T11:04:56.121Z,17.40
2023-03-03T11:07:33.363Z,23.53
2023-03-03T11:10:19.444Z,23.77
2023-03-03T11:13:09.376Z,21.20
2023-03-03T11:16:07.086Z,20.73
2023-03-03T11:19:03.662Z,20.27
2023-03-03T11:21:38.905Z,23.20
2023-03-03T11:24:36.206Z,20.13
2023-03-03T11:27:23.909Z,21.30
2023-03-03T11:30:23.828Z,20.17
2023-03-03T11:33:05.247Z,17.50
2023-03-03T11:35:44.111Z,18.53
2023-03-03T11:38:37.786Z,17.73
2023-03-03T11:41:18.345Z,18.57
2023-03-03T11:43:50.777Z,18.40
2023-03-03T11:46:26.227Z,20.70
2023-03-03T11:49:03.389Z,22.43
2023-03-03T11:51:48.426Z,21.30
2023-03-03T11:54:24.157Z,37.03
2023-03-03T11:56:57.301Z,20.10
2023-03-03T11:59:43.658Z,37.57
2023-03-03T12:02:44.003Z,21.70
2023-03-03T12:05:29.295Z,22.13
2023-03-03T12:08:09.786Z,17.07
2023-03-03T12:10:44.781Z,27.60
2023-03-03T12:13:22.999Z,21.27
2023-03-03T12:15:58.831Z,19.50
2023-03-03T12:18:55.369Z,26.17
2023-03-03T12:21:45.081Z,16.93
2023-03-03T12:24:33.138Z,16.03
2023-03-03T12:27:16.497Z,19.60
2023-03-03T12:29:57.875Z,15.80
2023-03-03T12:32:48.018Z,17.80
2023-03-03T12:35:28.046Z,31.63
2023-03-03T12:38:07.161Z,22.40
2023-03-03T12:40:38.270Z,17.20
2023-03-03T12:43:29.152Z,17.60
2023-03-03T12:46:07.389Z,15.53
2023-03-03T12:48:43.040Z,16.50
2023-03-03T12:51:28.285Z,17.10
2023-03-03T12:54:39.548Z,18.90
2023-03-03T12:57:22.293Z,17.63
2023-03-03T13:00:13.417Z,24.83
2023-03-03T13:02:50.469Z,44.20
2023-03-03T13:05:26.027Z,41.50
2023-03-03T13:08:19.387Z,43.53
2023-03-03T13:10:58.401Z,34.73
2023-03-03T13:13:32.874Z,33.40
2023-03-03T13:16:06.827Z,34.10
2023-03-03T13:18:51.024Z,35.03
2023-03-03T13:21:26.898Z,35.10
2023-03-03T13:24:05.095Z,34.27
2023-03-03T13:26:42.542Z,25.43
2023-03-03T13:29:22.191Z,21.90
2023-03-03T13:31:56.530Z,19.93
2023-03-03T13:34:42.920Z,21.37
2023-03-03T13:37:19.777Z,19.77
2023-03-03T13:39:58.404Z,19.07
2023-03-03T13:42:35.912Z,15.37
2023-03-03T13:45:14.456Z,18.13
2023-03-03T13:47:54.967Z,21.30
2023-03-03T13:50:33.293Z,20.33
2023-03-03T13:53:26.968Z,17.57
2023-03-03T13:56:05.697Z,15.97
2023-03-03T13:58:43.893Z,12.70
2023-03-03T14:01:22.929Z,16.93
2023-03-03T14:04:15.512Z,17.20
2023-03-03T14:06:55.874Z,15.50
2023-03-03T14:09:54.193Z,13.90
2023-03-03T14:12:31.021Z,12.27
2023-03-03T14:15:11.169Z,13.43
2023-03-03T14:17:55.943Z,13.23
2023-03-03T14:20:29.479Z,13.50
2023-03-03T14:23:01.190Z,13.70
2023-03-03T14:25:54.403Z,11.30
2023-03-03T14:28:24.995Z,13.00
2023-03-03T14:30:57.691Z,11.17
2023-03-03T14:33:32.381Z,16.47
2023-03-03T14:36:16.243Z,12.30
2023-03-03T14:38:51.777Z,12.87
2023-03-03T14:41:38.065Z,12.10
2023-03-03T14:44:29.482Z,12.70
2023-03-03T14:47:24.831Z,14.00
2023-03-03T14:49:54.701Z,13.73
2023-03-03T14:52:28.767Z,10.83
2023-03-03T14:55:00.443Z,12.87
2023-03-03T14:57:46.576Z,12.20
2023-03-03T15:00:36.411Z,13.53
2023-03-03T15:03:23.652Z,14.47
2023-03-03T15:05:53.788Z,11.80
2023-03-03T15:08:33.272Z,11.00
2023-03-03T15:11:19.502Z,11.00
2023-03-03T15:13:48.115Z,10.83
2023-03-03T15:16:20.435Z,12.40
2023-03-03T15:19:23.434Z,16.90
2023-03-03T15:22:02.885Z,13.07
2023-03-03T15:24:41.546Z,11.90
2023-03-03T15:27:15.618Z,9.43
2023-03-03T15:29:56.937Z,9.77
2023-03-03T15:32:31.281Z,9.40
2023-03-03T15:35:13.466Z,11.70
2023-03-03T15:37:51.470Z,13.37
2023-03-03T15:40:27.562Z,10.43
2023-03-03T15:43:12.458Z,10.90
2023-03-03T15:45:52.617Z,9.60
2023-03-03T15:48:42.564Z,7.67
2023-03-03T15:51:28.180Z,9.97
2023-03-03T15:54:23.973Z,11.33
2023-03-03T15:56:58.416Z,10.10
2023-03-03T16:00:02.324Z,10.10
2023-03-03T16:02:50.994Z,10.97
2023-03-03T16:05:25.675Z,7.43
2023-03-03T16:08:04.765Z,14.60
2023-03-03T16:10:43.169Z,11.13
2023-03-03T16:13:33.715Z,7.67
2023-03-03T16:16:17.444Z,11.43
2023-03-03T16:19:03.333Z,8.33
2023-03-03T16:22:03.210Z,9.13
2023-03-03T16:24:44.134Z,11.60
2023-03-03T16:27:21.617Z,10.77
2023-03-03T16:30:28.525Z,12.00
2023-03-03T16:33:12.937Z,9.57
2023-03-03T16:35:47.545Z,7.60
2023-03-03T16:38:23.715Z,10.53
2023-03-03T16:40:57.782Z,8.77
2023-03-03T16:43:34.313Z,6.97
2023-03-03T16:46:13.083Z,8.13
2023-03-03T16:48:53.106Z,9.47
2023-03-03T16:51:38.795Z,8.43
2023-03-03T16:54:11.208Z,9.70
2023-03-03T16:56:45.720Z,8.73
2023-03-03T16:59:40.465Z,7.83
2023-03-03T17:02:33.823Z,8.40
2023-03-03T17:05:09.785Z,8.40
2023-03-03T17:07:46.364Z,12.73
2023-03-03T17:10:26.967Z,10.53
2023-03-03T17:13:47.931Z,11.00
2023-03-03T17:16:23.658Z,10.37
2023-03-03T17:19:11.008Z,9.63
2023-03-03T17:21:58.543Z,9.70
2023-03-03T17:24:39.692Z,11.13
2023-03-03T17:27:20.347Z,8.37
2023-03-03T17:29:57.879Z,6.97
2023-03-03T17:32:50.260Z,11.37
2023-03-03T17:35:53.775Z,11.17
2023-03-03T17:38:36.316Z,12.03
2023-03-03T17:41:11.148Z,7.30
2023-03-03T17:43:52.891Z,8.67
2023-03-03T17:46:37.281Z,12.80
2023-03-03T17:49:42.626Z,8.43
2023-03-03T17:52:59.100Z,11.33
2023-03-03T17:56:02.948Z,9.23
2023-03-03T17:58:56.114Z,14.00
2023-03-03T18:01:46.481Z,8.90
2023-03-03T18:04:42.453Z,8.90
2023-03-03T18:07:43.288Z,11.20
2023-03-03T18:10:56.959Z,9.47
2023-03-03T18:13:51.973Z,10.00
2023-03-03T18:16:35.779Z,8.50
2023-03-03T18:19:46.552Z,9.17
2023-03-03T18:22:20.621Z,9.57
2023-03-03T18:25:03.469Z,9.40
2023-03-03T18:27:37.771Z,11.90
2023-03-03T18:30:24.926Z,9.00
2023-03-03T18:33:12.755Z,11.60
2023-03-03T18:35:43.991Z,11.37
2023-03-03T18:38:34.987Z,11.50
2023-03-03T18:41:06.554Z,11.93
2023-03-03T18:44:01.124Z,8.53
2023-03-03T18:46:56.421Z,13.10
2023-03-03T18:49:59.365Z,9.87
2023-03-03T18:52:31.164Z,10.17
2023-03-03T18:55:26.038Z,11.90
2023-03-03T18:58:44.290Z,11.37
2023-03-03T19:01:44.910Z,11.50
2023-03-03T19:04:25.223Z,10.07
2023-03-03T19:07:18.892Z,14.97
2023-03-03T19:09:58.120Z,15.70
2023-03-03T19:12:49.023Z,13.87
2023-03-03T19:15:59.802Z,11.60
2023-03-03T19:18:29.910Z,12.30
2023-03-03T19:21:02.512Z,13.53
2023-03-03T19:23:51.171Z,13.20
2023-03-03T19:26:50.296Z,11.00
2023-03-03T19:29:53.611Z,17.43
2023-03-03T19:33:10.615Z,14.80
2023-03-03T19:35:51.246Z,12.73
2023-03-03T19:38:34.934Z,12.47
2023-03-03T19:41:19.548Z,13.23
2023-03-03T19:43:59.790Z,12.40
2023-03-03T19:46:55.056Z,14.03
2023-03-03T19:49:42.106Z,12.73
2023-03-03T19:52:21.376Z,11.50
2023-03-03T19:55:03.999Z,14.63
2023-03-03T19:57:48.939Z,9.93
2023-03-03T20:00:25.971Z,14.53
2023-03-03T20:03:27.226Z,13.73
2023-03-03T20:06:06.918Z,12.83
2023-03-03T20:08:42.967Z,13.63
2023-03-03T20:11:25.103Z,12.30
2023-03-03T20:14:02.069Z,12.90
2023-03-03T20:16:40.816Z,23.40
2023-03-03T20:19:25.215Z,11.43
2023-03-03T20:22:08.205Z,12.90
2023-03-03T20:25:05.254Z,11.93
2023-03-03T20:27:45.921Z,13.40
2023-03-03T20:30:31.027Z,10.80
2023-03-03T20:33:17.620Z,12.97
2023-03-03T20:35:59.769Z,13.63
2023-03-03T20:38:41.183Z,15.90
2023-03-03T20:41:19.023Z,12.30
2023-03-03T20:44:03.637Z,12.20
2023-03-03T20:46:44.668Z,16.77
2023-03-03T20:49:38.210Z,15.87
2023-03-03T20:52:13.929Z,14.40
2023-03-03T20:54:53.836Z,12.90
2023-03-03T20:57:33.977Z,12.60
2023-03-03T21:00:09.373Z,14.70
2023-03-03T21:02:43.635Z,14.00
2023-03-03T21:05:16.307Z,15.00
2023-03-03T21:07:56.788Z,18.13
2023-03-03T21:10:30.059Z,22.70
2023-03-03T21:13:00.516Z,18.53
2023-03-03T21:15:32.212Z,17.10
2023-03-03T21:18:01.310Z,16.30
2023-03-03T21:20:32.807Z,15.63
2023-03-03T21:23:03.245Z,14.50
2023-03-03T21:25:49.298Z,14.20
2023-03-03T21:28:21.279Z,16.13
2023-03-03T21:31:18.034Z,13.83
2023-03-03T21:33:56.051Z,16.47
2023-03-03T21:36:26.034Z,19.27
2023-03-03T21:38:56.576Z,16.37
2023-03-03T21:41:26.620Z,17.13
2023-03-03T21:43:55.825Z,12.23
2023-03-03T21:46:26.143Z,13.13
2023-03-03T21:48:54.585Z,14.23
2023-03-03T21:51:24.443Z,17.10
2023-03-03T21:53:52.962Z,15.00
2023-03-03T21:56:21.351Z,16.10
2023-03-03T21:58:51.194Z,14.30
2023-03-03T22:01:19.663Z,13.70
2023-03-03T22:03:48.714Z,19.30
2023-03-03T22:06:17.967Z,16.30
2023-03-03T22:08:46.371Z,14.67
2023-03-03T22:11:15.633Z,12.40
2023-03-03T22:13:44.340Z,16.70
2023-03-03T22:16:14.190Z,17.77
2023-03-03T22:18:42.753Z,17.50
2023-03-03T22:21:11.074Z,14.90
2023-03-03T22:23:39.497Z,13.33
2023-03-03T22:26:07.987Z,14.30
2023-03-03T22:28:36.499Z,18.80
2023-03-03T22:31:05.224Z,14.47
2023-03-03T22:33:35.034Z,16.80
2023-03-03T22:36:03.411Z,13.77
2023-03-03T22:38:31.836Z,20.23
2023-03-03T22:41:00.383Z,17.37
2023-03-03T22:43:29.810Z,19.27
2023-03-03T22:45:58.946Z,16.03
2023-03-03T22:48:29.163Z,22.83
2023-03-03T22:50:59.104Z,20.23
2023-03-03T22:53:27.933Z,17.27
2023-03-03T22:55:56.552Z,19.37
2023-03-03T22:58:26.218Z,16.10
2023-03-03T23:00:55.436Z,18.63
2023-03-03T23:03:24.541Z,19.77
2023-03-03T23:05:53.174Z,17.97
2023-03-03T23:08:23.065Z,19.60
2023-03-03T23:10:51.461Z,16.63
2023-03-03T23:13:19.852Z,19.37
2023-03-03T23:15:48.281Z,18.33
2023-03-03T23:18:16.801Z,18.10
2023-03-03T23:20:46.098Z,17.40
2023-03-03T23:23:14.807Z,20.07
2023-03-03T23:25:44.663Z,19.27
2023-03-03T23:28:15.576Z,19.13
2023-03-03T23:30:45.036Z,19.43
2023-03-03T23:33:13.674Z,19.13
2023-03-03T23:35:42.576Z,17.33
2023-03-03T23:38:15.399Z,18.70
2023-03-03T23:40:46.646Z,17.70
2023-03-03T23:43:15.364Z,14.70
2023-03-03T23:45:43.700Z,17.80
2023-03-03T23:48:12.572Z,18.90
2023-03-03T23:50:41.053Z,18.40
2023-03-03T23:53:09.666Z,18.87
2023-03-03T23:55:38.063Z,23.20
2023-03-03T23:58:08.080Z,22.77
